createdAt,value
2022-09-02T00:01:39.768Z,57.58
2022-09-02T00:04:10.340Z,56.64
2022-09-02T00:06:38.923Z,56.56
2022-09-02T00:09:09.342Z,56.63
2022-09-02T00:11:40.107Z,56.75
2022-09-02T00:14:10.993Z,57.06
2022-09-02T00:16:39.174Z,56.91
2022-09-02T00:19:07.231Z,57.05
2022-09-02T00:21:36.425Z,56.80
2022-09-02T00:24:06.523Z,57.73
2022-09-02T00:26:34.601Z,56.23
2022-09-02T00:29:04.767Z,56.64
2022-09-02T00:31:33.792Z,56.56
2022-09-02T00:34:01.983Z,57.31
2022-09-02T00:36:30.119Z,56.35
2022-09-02T00:38:58.180Z,56.31
2022-09-02T00:41:28.924Z,56.59
2022-09-02T00:43:59.614Z,56.71
2022-09-02T00:46:32.033Z,56.75
2022-09-02T00:49:06.974Z,56.13
2022-09-02T00:51:40.835Z,56.54
2022-09-02T00:54:09.709Z,56.37
2022-09-02T00:56:39.691Z,56.16
2022-09-02T00:59:08.401Z,56.78
2022-09-02T01:01:38.047Z,56.73
2022-09-02T01:04:07.440Z,56.34
2022-09-02T01:06:35.851Z,56.67
2022-09-02T01:09:10.994Z,56.54
2022-09-02T01:11:42.491Z,56.52
2022-09-02T01:14:13.364Z,56.13
2022-09-02T01:16:46.934Z,56.46
2022-09-02T01:19:23.075Z,56.68
2022-09-02T01:21:53.582Z,56.40
2022-09-02T01:24:23.810Z,56.77
2022-09-02T01:26:54.490Z,55.63
2022-09-02T01:29:24.012Z,56.23
2022-09-02T01:31:52.968Z,55.57
2022-09-02T01:34:22.855Z,56.87
2022-09-02T01:36:52.747Z,56.62
2022-09-02T01:39:20.799Z,56.76
2022-09-02T01:41:49.134Z,56.00
2022-09-02T01:44:17.898Z,56.19
2022-09-02T01:46:47.749Z,56.39
2022-09-02T01:49:15.867Z,56.47
2022-09-02T01:51:44.731Z,56.97
2022-09-02T01:54:14.386Z,56.76
2022-09-02T01:56:44.140Z,56.67
2022-09-02T01:59:17.723Z,56.36
2022-09-02T02:01:46.909Z,56.38
2022-09-02T02:04:17.079Z,56.35
2022-09-02T02:06:52.262Z,56.19
2022-09-02T02:09:23.055Z,55.74
2022-09-02T02:11:53.056Z,56.41
2022-09-02T02:14:21.315Z,56.57
2022-09-02T02:16:51.836Z,57.34
2022-09-02T02:19:19.935Z,56.85
2022-09-02T02:21:49.513Z,56.76
2022-09-02T02:24:17.458Z,56.64
2022-09-02T02:26:47.594Z,57.07
2022-09-02T02:29:17.265Z,56.51
2022-09-02T02:31:45.787Z,56.84
2022-09-02T02:34:14.760Z,57.16
2022-09-02T02:36:43.937Z,57.13
2022-09-02T02:39:13.024Z,57.30
2022-09-02T02:41:44.976Z,57.25
2022-09-02T02:44:15.351Z,58.22
2022-09-02T02:46:44.001Z,58.53
2022-09-02T02:49:12.825Z,58.50
2022-09-02T02:51:41.927Z,58.89
2022-09-02T02:54:10.451Z,59.09
2022-09-02T02:56:38.402Z,59.22
2022-09-02T02:59:06.668Z,58.58
2022-09-02T03:01:36.618Z,58.35
2022-09-02T03:04:06.244Z,58.94
2022-09-02T03:06:35.787Z,58.98
2022-09-02T03:09:05.291Z,59.22
2022-09-02T03:11:33.558Z,58.89
2022-09-02T03:14:02.277Z,59.32
2022-09-02T03:16:30.689Z,59.90
2022-09-02T03:19:00.853Z,59.05
2022-09-02T03:21:28.997Z,60.04
2022-09-02T03:24:06.913Z,59.80
2022-09-02T03:26:34.843Z,60.05
2022-09-02T03:29:02.803Z,60.12
2022-09-02T03:31:30.864Z,60.38
2022-09-02T03:34:01.482Z,60.22
2022-09-02T03:36:32.667Z,60.53
2022-09-02T03:39:02.283Z,59.86
2022-09-02T03:41:30.705Z,60.29
2022-09-02T03:44:00.235Z,60.52
2022-09-02T03:46:29.756Z,61.42
2022-09-02T03:48:58.138Z,60.48
2022-09-02T03:51:28.541Z,60.70
2022-09-02T03:53:56.706Z,60.56
2022-09-02T03:56:26.636Z,61.25
2022-09-02T03:58:55.486Z,60.75
2022-09-02T04:01:27.937Z,61.12
2022-09-02T04:03:59.026Z,60.67
2022-09-02T04:06:32.485Z,60.78
2022-09-02T04:09:02.833Z,60.95
2022-09-02T04:11:31.135Z,61.31
2022-09-02T04:14:00.246Z,61.29
2022-09-02T04:16:29.879Z,61.23
2022-09-02T04:19:06.203Z,61.13
2022-09-02T04:21:38.240Z,60.98
2022-09-02T04:24:09.288Z,61.31
2022-09-02T04:26:44.819Z,61.60
2022-09-02T04:29:14.788Z,61.70
2022-09-02T04:31:44.336Z,61.48
2022-09-02T04:34:12.429Z,61.42
2022-09-02T04:36:43.218Z,61.80
2022-09-02T04:39:13.631Z,60.85
2022-09-02T04:41:42.519Z,60.45
2022-09-02T04:44:12.753Z,60.92
2022-09-02T04:46:44.062Z,60.89
2022-09-02T04:49:16.284Z,60.50
2022-09-02T04:51:48.070Z,60.96
2022-09-02T04:54:16.107Z,61.13
2022-09-02T04:56:48.434Z,61.81
2022-09-02T04:59:16.845Z,62.07
2022-09-02T05:01:52.984Z,62.40
2022-09-02T05:04:26.816Z,61.66
2022-09-02T05:06:58.054Z,61.82
2022-09-02T05:09:26.032Z,62.86
2022-09-02T05:11:58.352Z,60.96
2022-09-02T05:14:31.004Z,61.56
2022-09-02T05:17:07.342Z,61.83
2022-09-02T05:19:37.908Z,61.88
2022-09-02T05:22:07.327Z,62.22
2022-09-02T05:24:39.377Z,62.46
2022-09-02T05:27:10.556Z,62.36
2022-09-02T05:29:38.662Z,62.13
2022-09-02T05:32:08.172Z,61.58
2022-09-02T05:34:38.770Z,61.54
2022-09-02T05:37:08.541Z,61.01
2022-09-02T05:39:37.651Z,60.88
2022-09-02T05:42:08.167Z,61.24
2022-09-02T05:44:38.161Z,61.11
2022-09-02T05:47:07.705Z,60.59
2022-09-02T05:49:36.043Z,60.82
2022-09-02T05:52:14.482Z,60.68
2022-09-02T05:54:46.275Z,60.61
2022-09-02T05:57:18.670Z,60.62
2022-09-02T06:00:00.149Z,60.09
2022-09-02T06:02:44.083Z,59.96
2022-09-02T06:05:37.330Z,60.08
2022-09-02T06:08:21.942Z,59.92
2022-09-02T06:10:50.552Z,60.37
2022-09-02T06:13:22.822Z,59.94
2022-09-02T06:15:54.009Z,60.63
2022-09-02T06:18:26.300Z,59.58
2022-09-02T06:20:56.691Z,59.33
2022-09-02T06:23:30.955Z,59.17
2022-09-02T06:26:02.324Z,59.29
2022-09-02T06:28:31.061Z,59.23
2022-09-02T06:31:00.848Z,59.06
2022-09-02T06:33:28.982Z,59.47
2022-09-02T06:35:57.841Z,59.07
2022-09-02T06:38:26.974Z,59.16
2022-09-02T06:40:57.292Z,58.16
2022-09-02T06:43:42.546Z,58.07
2022-09-02T06:46:23.004Z,58.37
2022-09-02T06:48:53.661Z,57.95
2022-09-02T06:51:25.603Z,57.66
2022-09-02T06:53:57.232Z,57.74
2022-09-02T06:56:29.377Z,57.94
2022-09-02T06:58:58.104Z,57.68
2022-09-02T07:01:39.408Z,57.29
2022-09-02T07:04:26.187Z,57.24
2022-09-02T07:06:56.139Z,57.58
2022-09-02T07:09:31.435Z,56.66
2022-09-02T07:12:08.337Z,57.13
2022-09-02T07:14:44.507Z,57.38
2022-09-02T07:17:17.700Z,57.58
2022-09-02T07:19:49.924Z,57.90
2022-09-02T07:22:18.906Z,57.66
2022-09-02T07:24:47.969Z,57.66
2022-09-02T07:27:20.228Z,57.67
2022-09-02T07:29:49.805Z,57.80
2022-09-02T07:32:20.084Z,57.56
2022-09-02T07:34:49.403Z,58.04
2022-09-02T07:37:17.595Z,58.34
2022-09-02T07:39:46.165Z,57.54
2022-09-02T07:42:19.586Z,57.35
2022-09-02T07:44:48.295Z,58.04
2022-09-02T07:47:16.863Z,57.45
2022-09-02T07:52:35.952Z,56.92
2022-09-02T07:55:04.134Z,56.55
2022-09-02T07:57:33.885Z,56.60
2022-09-02T08:00:03.396Z,55.60
2022-09-02T08:02:42.517Z,55.00
2022-09-02T08:05:14.995Z,55.62
2022-09-02T08:07:43.315Z,55.31
2022-09-02T08:10:13.096Z,55.07
2022-09-02T08:12:43.061Z,54.99
2022-09-02T08:15:12.501Z,56.26
2022-09-02T08:17:42.028Z,54.26
2022-09-02T08:20:13.167Z,53.50
2022-09-02T08:22:41.932Z,53.42
2022-09-02T08:25:10.957Z,52.70
2022-09-02T08:27:42.634Z,52.89
2022-09-02T08:30:11.689Z,53.27
2022-09-02T08:32:40.685Z,53.55
2022-09-02T08:35:11.533Z,52.83
2022-09-02T08:37:39.626Z,52.60
2022-09-02T08:40:14.564Z,52.41
2022-09-02T08:42:49.714Z,51.40
2022-09-02T08:45:22.699Z,50.59
2022-09-02T08:47:59.383Z,49.58
2022-09-02T08:50:27.574Z,48.72
2022-09-02T08:53:04.521Z,49.27
2022-09-02T08:55:38.280Z,49.14
2022-09-02T08:58:07.848Z,49.25
2022-09-02T09:00:41.566Z,49.91
2022-09-02T09:03:20.775Z,49.50
2022-09-02T09:05:57.385Z,49.23
2022-09-02T09:08:34.482Z,49.63
2022-09-02T09:11:05.145Z,49.13
2022-09-02T09:14:03.737Z,48.85
2022-09-02T09:16:40.746Z,48.84
2022-09-02T09:19:13.963Z,47.46
2022-09-02T09:21:43.542Z,47.27
2022-09-02T09:24:22.803Z,48.46
2022-09-02T09:26:50.744Z,46.71
2022-09-02T09:29:20.138Z,46.71
2022-09-02T09:31:54.588Z,45.35
2022-09-02T09:34:22.949Z,44.99
2022-09-02T09:36:54.601Z,42.90
2022-09-02T09:39:25.857Z,42.34
2022-09-02T09:41:56.115Z,42.18
2022-09-02T09:44:46.948Z,41.67
2022-09-02T09:47:20.561Z,40.68
2022-09-02T09:49:50.832Z,43.54
2022-09-02T09:52:27.042Z,41.84
2022-09-02T09:55:12.773Z,42.10
2022-09-02T09:57:44.612Z,41.36
2022-09-02T10:00:27.430Z,40.89
2022-09-02T10:02:57.891Z,40.58
2022-09-02T10:05:35.204Z,40.29
2022-09-02T10:08:09.999Z,40.03
2022-09-02T10:10:58.317Z,40.98
2022-09-02T10:13:29.821Z,42.25
2022-09-02T10:16:15.094Z,41.82
2022-09-02T10:18:51.013Z,43.09
2022-09-02T10:21:33.260Z,38.00
2022-09-02T10:24:09.052Z,37.40
2022-09-02T10:26:40.972Z,36.74
2022-09-02T10:29:50.504Z,36.24
2022-09-02T10:32:35.707Z,37.50
2022-09-02T10:35:15.025Z,38.63
2022-09-02T10:37:57.390Z,39.96
2022-09-02T10:40:35.111Z,38.47
2022-09-02T10:43:06.743Z,39.35
2022-09-02T10:45:39.073Z,39.83
2022-09-02T10:48:24.574Z,40.66
2022-09-02T10:50:56.792Z,38.97
2022-09-02T10:53:39.105Z,41.42
2022-09-02T10:56:12.211Z,38.14
2022-09-02T10:58:50.241Z,38.74
2022-09-02T11:01:24.045Z,39.36
2022-09-02T11:04:04.316Z,39.27
2022-09-02T11:07:01.006Z,38.25
2022-09-02T11:09:33.984Z,38.91
2022-09-02T11:12:08.743Z,40.07
2022-09-02T11:14:41.992Z,38.33
2022-09-02T11:17:24.337Z,36.52
2022-09-02T11:20:00.349Z,37.27
2022-09-02T11:22:35.231Z,37.18
2022-09-02T11:25:09.667Z,37.38
2022-09-02T11:27:43.326Z,37.41
2022-09-02T11:30:15.136Z,38.28
2022-09-02T11:32:48.295Z,37.99
2022-09-02T11:35:21.599Z,40.59
2022-09-02T11:37:51.027Z,39.26
2022-09-02T11:40:36.428Z,39.04
2022-09-02T11:43:29.090Z,38.15
2022-09-02T11:46:19.264Z,40.02
2022-09-02T11:49:42.492Z,35.13
2022-09-02T11:52:25.970Z,34.86
2022-09-02T11:55:02.703Z,33.63
2022-09-02T11:57:33.368Z,32.61
2022-09-02T12:00:31.997Z,30.74
2022-09-02T12:03:37.972Z,30.44
2022-09-02T12:06:10.265Z,32.54
2022-09-02T12:09:05.297Z,33.01
2022-09-02T12:11:43.713Z,34.80
2022-09-02T12:14:34.111Z,35.30
2022-09-02T12:17:03.835Z,34.38
2022-09-02T12:19:43.874Z,35.40
2022-09-02T12:22:28.615Z,35.42
2022-09-02T12:24:59.884Z,35.13
2022-09-02T12:27:36.611Z,35.73
2022-09-02T12:30:09.247Z,35.59
2022-09-02T12:33:05.139Z,35.37
2022-09-02T12:35:51.740Z,35.04
2022-09-02T12:38:34.610Z,34.56
2022-09-02T12:41:13.566Z,33.86
2022-09-02T12:43:53.944Z,34.57
2022-09-02T12:46:29.110Z,34.16
2022-09-02T12:49:03.177Z,35.41
2022-09-02T12:51:53.760Z,35.14
2022-09-02T12:54:27.671Z,35.11
2022-09-02T12:56:57.012Z,34.68
2022-09-02T12:59:30.817Z,35.88
2022-09-02T13:02:25.664Z,35.03
2022-09-02T13:05:08.087Z,34.70
2022-09-02T13:08:08.909Z,34.33
2022-09-02T13:11:19.464Z,34.85
2022-09-02T13:14:17.434Z,34.62
2022-09-02T13:17:05.044Z,34.69
2022-09-02T13:19:55.938Z,34.75
2022-09-02T13:22:51.908Z,34.23
2022-09-02T13:25:51.627Z,34.54
2022-09-02T13:28:48.265Z,34.70
2022-09-02T13:31:21.707Z,34.79
2022-09-02T13:33:59.053Z,33.82
2022-09-02T13:36:30.820Z,34.28
2022-09-02T13:39:12.141Z,34.25
2022-09-02T13:41:40.157Z,34.98
2022-09-02T13:44:10.430Z,33.72
2022-09-02T13:46:48.833Z,33.64
2022-09-02T13:49:26.536Z,33.08
2022-09-02T13:51:57.035Z,33.25
2022-09-02T13:54:31.297Z,34.13
2022-09-02T13:57:00.215Z,33.45
2022-09-02T13:59:36.026Z,34.13
2022-09-02T14:02:28.421Z,34.04
2022-09-02T14:05:00.226Z,34.45
2022-09-02T14:07:33.353Z,34.78
2022-09-02T14:10:03.849Z,35.30
2022-09-02T14:12:34.979Z,35.95
2022-09-02T14:15:03.674Z,35.53
2022-09-02T14:17:35.122Z,35.90
2022-09-02T14:20:19.921Z,36.11
2022-09-02T14:22:54.325Z,36.35
2022-09-02T14:25:27.239Z,36.74
2022-09-02T14:27:56.206Z,34.98
2022-09-02T14:30:34.633Z,35.23
2022-09-02T14:33:25.050Z,35.71
2022-09-02T14:35:57.810Z,36.51
2022-09-02T14:38:27.661Z,35.04
2022-09-02T14:41:03.962Z,35.49
2022-09-02T14:43:41.450Z,34.49
2022-09-02T14:46:18.577Z,34.71
2022-09-02T14:48:55.373Z,34.27
2022-09-02T14:51:23.592Z,34.08
2022-09-02T14:53:51.535Z,34.01
2022-09-02T14:56:51.292Z,34.27
2022-09-02T14:59:20.240Z,34.26
2022-09-02T15:01:50.678Z,34.30
2022-09-02T15:04:20.610Z,34.17
2022-09-02T15:06:49.089Z,34.12
2022-09-02T15:09:17.661Z,34.06
2022-09-02T15:11:48.924Z,36.08
2022-09-02T15:14:17.055Z,34.37
2022-09-02T15:16:45.049Z,34.71
2022-09-02T15:19:13.071Z,34.42
2022-09-02T15:21:42.382Z,33.85
2022-09-02T15:24:10.860Z,34.02
2022-09-02T15:26:38.793Z,33.84
2022-09-02T15:29:07.114Z,33.97
2022-09-02T15:31:36.465Z,34.07
2022-09-02T15:34:04.858Z,34.61
2022-09-02T15:36:32.813Z,34.38
2022-09-02T15:39:02.161Z,34.82
2022-09-02T15:41:31.506Z,34.70
2022-09-02T15:44:00.764Z,34.53
2022-09-02T15:46:30.402Z,34.25
2022-09-02T15:49:02.994Z,34.33
2022-09-02T15:51:31.520Z,34.00
2022-09-02T15:54:01.060Z,34.56
2022-09-02T15:56:31.658Z,34.85
2022-09-02T15:59:02.769Z,34.98
2022-09-02T16:01:32.687Z,34.86
2022-09-02T16:04:02.440Z,35.19
2022-09-02T16:06:31.051Z,34.63
2022-09-02T16:08:59.039Z,34.40
2022-09-02T16:11:27.348Z,34.06
2022-09-02T16:13:56.974Z,33.86
2022-09-02T16:16:25.040Z,34.31
2022-09-02T16:18:54.780Z,34.44
2022-09-02T16:21:23.482Z,34.48
2022-09-02T16:23:52.711Z,34.58
2022-09-02T16:26:24.555Z,34.72
2022-09-02T16:28:55.526Z,34.70
2022-09-02T16:31:27.274Z,34.84
2022-09-02T16:33:57.407Z,34.83
2022-09-02T16:36:31.940Z,35.03
2022-09-02T16:39:01.872Z,34.90
2022-09-02T16:41:32.435Z,35.15
2022-09-02T16:44:01.336Z,34.79
2022-09-02T16:46:31.595Z,34.80
2022-09-02T16:48:59.983Z,34.80
2022-09-02T16:51:30.180Z,35.06
2022-09-02T16:54:00.400Z,35.30
2022-09-02T16:56:30.583Z,35.32
2022-09-02T16:59:02.139Z,35.16
2022-09-02T17:01:32.776Z,35.12
2022-09-02T17:04:01.335Z,35.36
2022-09-02T17:06:29.893Z,35.55
2022-09-02T17:08:58.201Z,35.59
2022-09-02T17:11:28.073Z,35.55
2022-09-02T17:13:57.454Z,35.48
2022-09-02T17:16:27.558Z,35.87
2022-09-02T17:18:57.038Z,35.66
2022-09-02T17:21:28.528Z,35.95
2022-09-02T17:23:57.202Z,35.83
2022-09-02T17:26:27.689Z,35.67
2022-09-02T17:28:57.654Z,36.43
2022-09-02T17:31:28.161Z,36.28
2022-09-02T17:34:00.030Z,36.58
2022-09-02T17:36:30.008Z,36.79
2022-09-02T17:38:58.905Z,37.22
2022-09-02T17:41:45.229Z,36.39
2022-09-02T17:44:15.152Z,36.58
2022-09-02T17:46:44.465Z,37.15
2022-09-02T17:49:17.672Z,37.20
2022-09-02T17:51:46.556Z,37.05
2022-09-02T17:54:15.412Z,37.00
2022-09-02T17:57:01.832Z,37.23
2022-09-02T17:59:38.067Z,37.13
2022-09-02T18:02:33.282Z,37.30
2022-09-02T18:05:09.630Z,37.17
2022-09-02T18:07:50.231Z,38.00
2022-09-02T18:10:18.884Z,37.65
2022-09-02T18:12:47.123Z,38.19
2022-09-02T18:15:18.837Z,38.24
2022-09-02T18:17:49.869Z,37.64
2022-09-02T18:20:27.945Z,38.31
2022-09-02T18:23:25.835Z,38.16
2022-09-02T18:26:03.733Z,38.44
2022-09-02T18:28:46.261Z,38.81
2022-09-02T18:31:26.492Z,38.79
2022-09-02T18:34:03.980Z,38.89
2022-09-02T18:36:39.740Z,38.60
2022-09-02T18:39:19.603Z,38.99
2022-09-02T18:42:03.222Z,38.98
2022-09-02T18:44:36.532Z,39.36
2022-09-02T18:47:10.831Z,39.75
2022-09-02T18:49:39.928Z,39.60
2022-09-02T18:52:11.494Z,39.30
2022-09-02T18:54:46.303Z,39.49
2022-09-02T18:57:14.539Z,39.74
2022-09-02T18:59:48.364Z,39.54
2022-09-02T19:02:23.810Z,40.41
2022-09-02T19:04:51.813Z,39.92
2022-09-02T19:07:38.997Z,39.86
2022-09-02T19:10:09.024Z,40.49
2022-09-02T19:12:38.066Z,40.52
2022-09-02T19:15:09.217Z,40.41
2022-09-02T19:17:37.184Z,40.24
2022-09-02T19:20:06.986Z,40.68
2022-09-02T19:22:39.923Z,40.29
2022-09-02T19:25:11.162Z,40.53
2022-09-02T19:27:42.480Z,40.74
2022-09-02T19:30:14.565Z,40.58
2022-09-02T19:32:46.308Z,40.75
2022-09-02T19:35:17.421Z,40.59
2022-09-02T19:37:51.137Z,41.14
2022-09-02T19:40:22.076Z,41.16
2022-09-02T19:42:51.946Z,41.12
2022-09-02T19:45:21.624Z,41.40
2022-09-02T19:48:06.467Z,41.37
2022-09-02T19:50:37.177Z,41.32
2022-09-02T19:53:07.189Z,41.49
2022-09-02T19:55:35.955Z,41.98
2022-09-02T19:58:03.851Z,41.93
2022-09-02T20:00:33.338Z,42.22
2022-09-02T20:03:03.286Z,41.76
2022-09-02T20:05:31.335Z,42.58
2022-09-02T20:07:59.310Z,42.17
2022-09-02T20:10:30.078Z,42.29
2022-09-02T20:12:58.722Z,42.44
2022-09-02T20:15:26.685Z,42.48
2022-09-02T20:17:54.595Z,42.38
2022-09-02T20:20:26.389Z,42.19
2022-09-02T20:22:57.435Z,42.40
2022-09-02T20:25:36.867Z,42.58
2022-09-02T20:28:18.351Z,42.53
2022-09-02T20:30:52.151Z,42.76
2022-09-02T20:33:24.089Z,42.76
2022-09-02T20:36:19.119Z,42.86
2022-09-02T20:39:13.480Z,42.79
2022-09-02T20:41:47.715Z,43.20
2022-09-02T20:44:28.939Z,43.01
2022-09-02T20:47:14.816Z,43.25
2022-09-02T20:49:57.562Z,43.24
2022-09-02T20:52:33.030Z,43.21
2022-09-02T20:55:06.556Z,43.02
2022-09-02T20:57:47.873Z,43.11
2022-09-02T21:00:19.165Z,42.91
2022-09-02T21:02:56.932Z,43.25
2022-09-02T21:05:29.787Z,43.20
2022-09-02T21:08:02.728Z,43.21
2022-09-02T21:10:34.205Z,43.25
2022-09-02T21:13:11.501Z,43.35
2022-09-02T21:15:45.921Z,43.45
2022-09-02T21:18:21.629Z,43.60
2022-09-02T21:20:54.213Z,43.66
2022-09-02T21:23:28.420Z,43.66
2022-09-02T21:25:58.881Z,43.64
2022-09-02T21:28:35.242Z,43.70
2022-09-02T21:31:09.192Z,43.88
2022-09-02T21:33:37.460Z,44.05
2022-09-02T21:36:06.583Z,43.63
2022-09-02T21:38:39.485Z,43.80
2022-09-02T21:41:28.754Z,43.53
2022-09-02T21:44:06.209Z,43.62
2022-09-02T21:46:40.303Z,44.00
2022-09-02T21:49:23.639Z,43.88
2022-09-02T21:51:56.792Z,43.89
2022-09-02T21:54:40.737Z,44.00
2022-09-02T21:57:26.157Z,44.39
2022-09-02T22:00:01.078Z,44.24
2022-09-02T22:02:38.945Z,43.92
2022-09-02T22:05:18.059Z,44.19
2022-09-02T22:07:50.177Z,44.29
2022-09-02T22:10:28.200Z,44.46
2022-09-02T22:13:03.063Z,44.59
2022-09-02T22:15:39.900Z,44.66
2022-09-02T22:18:17.799Z,44.97
2022-09-02T22:20:46.128Z,44.49
2022-09-02T22:23:25.572Z,44.97
2022-09-02T22:25:56.443Z,44.69
2022-09-02T22:28:32.291Z,44.83
2022-09-02T22:31:08.684Z,44.87
2022-09-02T22:33:49.010Z,44.79
2022-09-02T22:36:29.422Z,44.78
2022-09-02T22:39:01.278Z,45.31
2022-09-02T22:41:45.873Z,45.15
2022-09-02T22:44:18.642Z,45.47
2022-09-02T22:47:12.496Z,45.39
2022-09-02T22:50:01.275Z,45.22
2022-09-02T22:52:47.374Z,45.83
2022-09-02T22:55:17.256Z,45.43
2022-09-02T22:57:53.259Z,45.57
2022-09-02T23:00:22.985Z,45.70
2022-09-02T23:03:03.020Z,45.70
2022-09-02T23:05:47.773Z,45.76
2022-09-02T23:08:17.894Z,45.57
2022-09-02T23:10:56.994Z,45.99
2022-09-02T23:13:36.364Z,45.81
2022-09-02T23:16:12.391Z,45.83
2022-09-02T23:18:52.975Z,45.91
2022-09-02T23:21:29.020Z,45.99
2022-09-02T23:24:05.755Z,45.46
2022-09-02T23:26:43.017Z,46.23
2022-09-02T23:29:17.597Z,45.68
2022-09-02T23:32:09.155Z,46.19
2022-09-02T23:34:58.653Z,46.35
2022-09-02T23:37:35.037Z,46.37
2022-09-02T23:40:13.798Z,46.41
2022-09-02T23:42:42.165Z,46.55
2022-09-02T23:45:20.672Z,46.19
2022-09-02T23:48:12.541Z,46.71
2022-09-02T23:50:56.248Z,46.74
2022-09-02T23:53:32.685Z,46.65
2022-09-02T23:56:13.959Z,46.83
2022-09-02T23:58:57.477Z,46.95
